Hovedside
METAR-TAF:

METAR-TAF

Lufthavner :

Woodvale, England

breddegrad: 53-34-54N, lengdegrad: 003-03-20W, høyde over havet: 11 m

Gjeldene værobservasjon

Denne rapporten ble laget for 8 timer og 15 minutter siden, klokken 15:20 UTC
Vind 11 kt fra Sør-sørøst
Temperatur 3°C
Luftfuktighet 93%
Trykk 990 hPa
Sikt 10 km eller mer
Få skyer i en høyde av 600 ft
Spredte skyer i en høyde av 1800 ft
lett regn

METAR: EGOW 281520Z 16011KT 9999 -RA FEW006 SCT018 03/02 Q0990 RMK WHT

Tid: 23:35 (23:35 UTC)

Varsel

Denne rapporten ble laget for 9 timer og 41 minutter siden, klokken 13:54 UTC
Varsel gyldig fra 28. klokken 15 UTC til 28. klokken 18 UTC
Vind 12 kt fra Sør
Sikt 10 km eller mer
Spredte skyer i en høyde av 1800 ft
Midlertidig
fra 28. klokken 15 UTC til 28. klokken 18 UTC
Brutte skyer i en høyde av 1000 ft

TAF: EGOW 281354Z 2815/2818 19012KT 9999 SCT018 TEMPO 2815/2818 BKN010

Værobservasjoner og værvarsel for over 4000 flyplasser (METAR- og TAF-rapporter).

Tilgjengelige stasjoner er representert av de røde og gule prikkene på kartet.

Hold musepekeren over prikken for å se navnet på stasjonen.

Klikk så for å se værobservasjoner og -varsler.

For å forandre kartet kan du klikke på den grønne knappen med svart kryss for å zoome inn, på den grønne knappen med strek for å zoome ut, eller på de grønne pilene for å se tilstøtende kart.


METAR-TAF: